Time,TemperatureF,DewpointF,PressureIn,WindDirection,WindDirectionDegrees,WindSpeedMPH,WindSpeedGustMPH,Humidity,HourlyPrecipIn,Conditions,Clouds,dailyrainin,SolarRadiationWatts/m^2,SoftwareType,DateUTC
2013-06-30 00:02:00,69.0,47.0,-100.00,SSW,204,8.0,14.0,46,0.00,,,0.00,0.000000,,2013-06-30 06:02:00,
2013-06-30 00:23:00,68.0,48.0,-100.00,SW,217,16.0,20.0,48,0.00,,,0.00,0.000000,,2013-06-30 06:23:00,
2013-06-30 00:34:00,68.0,48.0,-100.00,SW,217,16.0,20.0,48,0.00,,,0.00,0.000000,,2013-06-30 06:34:00,
2013-06-30 00:43:00,68.0,48.0,-100.00,SW,217,16.0,20.0,48,0.00,,,0.00,0.000000,,2013-06-30 06:43:00,
2013-06-30 00:53:00,68.0,48.0,-100.00,SW,217,16.0,20.0,48,0.00,,,0.00,0.000000,,2013-06-30 06:53:00,
2013-06-30 01:02:00,68.0,48.0,-100.00,SW,217,16.0,20.0,48,0.00,,,0.00,0.000000,,2013-06-30 07:02:00,
2013-06-30 01:22:00,69.0,48.0,-100.00,SSW,199,10.0,24.0,48,0.00,,,0.00,0.000000,,2013-06-30 07:22:00,
2013-06-30 02:22:00,64.0,48.0,-100.00,SE,141,7.0,14.0,56,-99.99,,,0.00,0.000000,,2013-06-30 08:22:00,
2013-06-30 02:34:00,64.0,48.0,-100.00,SE,141,7.0,14.0,56,-99.99,,,0.00,0.000000,,2013-06-30 08:34:00,
2013-06-30 02:42:00,64.0,48.0,-100.00,SE,141,7.0,14.0,56,-99.99,,,0.00,0.000000,,2013-06-30 08:42:00,
2013-06-30 02:53:00,64.0,48.0,-100.00,SE,141,7.0,14.0,56,-99.99,,,0.00,0.000000,,2013-06-30 08:53:00,
2013-06-30 03:01:00,64.0,48.0,-100.00,SE,141,7.0,14.0,56,-99.99,,,0.00,0.000000,,2013-06-30 09:01:00,
2013-06-30 03:23:00,65.0,48.0,-100.00,SW,214,8.0,15.0,54,0.00,,,0.00,0.000000,,2013-06-30 09:23:00,
2013-06-30 04:22:00,62.0,47.0,-100.00,NNW,329,3.0,15.0,59,-99.99,,,0.00,0.000000,,2013-06-30 10:22:00,
2013-06-30 04:53:00,62.0,47.0,-100.00,NNW,329,3.0,15.0,59,-99.99,,,0.00,0.000000,,2013-06-30 10:53:00,
2013-06-30 05:02:00,62.0,47.0,-100.00,NNW,329,3.0,15.0,59,-99.99,,,0.00,0.000000,,2013-06-30 11:02:00,
2013-06-30 05:22:00,60.0,49.0,-100.00,South,181,0.0,6.0,66,0.00,,,0.00,0.000000,,2013-06-30 11:22:00,
2013-06-30 05:53:00,60.0,49.0,-100.00,South,181,0.0,6.0,66,0.00,,,0.00,0.000000,,2013-06-30 11:53:00,
2013-06-30 06:01:00,60.0,49.0,-100.00,South,181,0.0,6.0,66,0.00,,,0.00,0.000000,,2013-06-30 12:01:00,
2013-06-30 06:24:00,60.0,48.0,-100.00,East,98,3.0,5.0,64,0.00,,,0.00,4.000000,,2013-06-30 12:24:00,
2013-06-30 07:02:00,60.0,48.0,-100.00,East,98,3.0,5.0,64,0.00,,,0.00,4.000000,,2013-06-30 13:02:00,
2013-06-30 09:02:00,68.0,52.0,-100.00,ENE,70,2.0,6.0,56,-99.99,,,0.00,284.000000,,2013-06-30 15:02:00,
2013-06-30 10:01:00,74.0,53.0,-100.00,North,4,1.0,7.0,48,0.00,,,0.00,526.000000,,2013-06-30 16:01:00,
2013-06-30 10:44:00,75.0,55.0,-100.00,ESE,109,5.0,9.0,49,0.00,,,0.00,519.000000,,2013-06-30 16:44:00,
2013-06-30 10:53:00,75.0,55.0,-100.00,ESE,109,5.0,9.0,49,0.00,,,0.00,519.000000,,2013-06-30 16:53:00,
2013-06-30 11:01:00,75.0,55.0,-100.00,ESE,109,5.0,9.0,49,0.00,,,0.00,519.000000,,2013-06-30 17:01:00,
2013-06-30 11:34:00,76.0,55.0,-100.00,East,98,1.0,10.0,48,0.00,,,0.00,494.000000,,2013-06-30 17:34:00,
2013-06-30 11:43:00,76.0,55.0,-100.00,East,98,1.0,10.0,48,0.00,,,0.00,494.000000,,2013-06-30 17:43:00,
2013-06-30 11:52:00,76.0,55.0,-100.00,East,98,1.0,10.0,48,0.00,,,0.00,494.000000,,2013-06-30 17:52:00,
2013-06-30 12:01:00,76.0,55.0,-100.00,East,98,1.0,10.0,48,0.00,,,0.00,494.000000,,2013-06-30 18:01:00,
2013-06-30 12:22:00,82.0,55.0,-100.00,East,94,4.0,9.0,39,0.00,,,-99.99,909.000000,,2013-06-30 18:22:00,
2013-06-30 12:34:00,82.0,55.0,-100.00,East,94,4.0,9.0,39,0.00,,,-99.99,909.000000,,2013-06-30 18:34:00,
2013-06-30 12:43:00,82.0,55.0,-100.00,East,94,4.0,9.0,39,0.00,,,-99.99,909.000000,,2013-06-30 18:43:00,
2013-06-30 12:53:00,82.0,55.0,-100.00,East,94,4.0,9.0,39,0.00,,,-99.99,909.000000,,2013-06-30 18:53:00,
2013-06-30 13:01:00,82.0,55.0,-100.00,East,94,4.0,9.0,39,0.00,,,-99.99,909.000000,,2013-06-30 19:01:00,
2013-06-30 13:33:00,87.0,54.0,-100.00,SSE,152,3.0,13.0,33,0.00,,,0.00,1109.000000,,2013-06-30 19:33:00,
2013-06-30 13:43:00,87.0,54.0,-100.00,SSE,152,3.0,13.0,33,0.00,,,0.00,1109.000000,,2013-06-30 19:43:00,
2013-06-30 13:53:00,87.0,54.0,-100.00,SSE,152,3.0,13.0,33,0.00,,,0.00,1109.000000,,2013-06-30 19:53:00,
2013-06-30 14:01:00,87.0,54.0,-100.00,SSE,152,3.0,13.0,33,0.00,,,0.00,1109.000000,,2013-06-30 20:01:00,
2013-06-30 14:22:00,88.0,53.0,-100.00,NNE,25,6.0,10.0,30,0.00,,,0.00,1146.000000,,2013-06-30 20:22:00,
2013-06-30 14:34:00,88.0,53.0,-100.00,NNE,25,6.0,10.0,30,0.00,,,0.00,1146.000000,,2013-06-30 20:34:00,
2013-06-30 14:42:00,88.0,53.0,-100.00,NNE,25,6.0,10.0,30,0.00,,,0.00,1146.000000,,2013-06-30 20:42:00,
2013-06-30 14:52:00,88.0,53.0,-100.00,NNE,25,6.0,10.0,30,0.00,,,0.00,1146.000000,,2013-06-30 20:52:00,
2013-06-30 15:01:00,88.0,53.0,-100.00,NNE,25,6.0,10.0,30,0.00,,,0.00,1146.000000,,2013-06-30 21:01:00,
2013-06-30 15:22:00,91.0,53.0,-100.00,NNE,25,7.0,17.0,28,0.00,,,0.00,1137.000000,,2013-06-30 21:22:00,
2013-06-30 15:34:00,91.0,53.0,-100.00,NNE,25,7.0,17.0,28,0.00,,,0.00,1137.000000,,2013-06-30 21:34:00,
2013-06-30 15:43:00,91.0,53.0,-100.00,NNE,25,7.0,17.0,28,0.00,,,0.00,1137.000000,,2013-06-30 21:43:00,
2013-06-30 15:53:00,91.0,53.0,-100.00,NNE,25,7.0,17.0,28,0.00,,,0.00,1137.000000,,2013-06-30 21:53:00,
2013-06-30 16:01:00,91.0,53.0,-100.00,NNE,25,7.0,17.0,28,0.00,,,0.00,1137.000000,,2013-06-30 22:01:00,
2013-06-30 16:22:00,89.0,51.0,-100.00,ENE,66,6.0,16.0,27,0.00,,,0.00,904.000000,,2013-06-30 22:22:00,
2013-06-30 16:34:00,89.0,51.0,-100.00,ENE,66,6.0,16.0,27,0.00,,,0.00,904.000000,,2013-06-30 22:34:00,
2013-06-30 16:43:00,89.0,51.0,-100.00,ENE,66,6.0,16.0,27,0.00,,,0.00,904.000000,,2013-06-30 22:43:00,
2013-06-30 16:53:00,89.0,51.0,-100.00,ENE,66,6.0,16.0,27,0.00,,,0.00,904.000000,,2013-06-30 22:53:00,
2013-06-30 17:01:00,89.0,51.0,-100.00,ENE,66,6.0,16.0,27,0.00,,,0.00,904.000000,,2013-06-30 23:01:00,
2013-06-30 17:22:00,90.0,51.0,-100.00,ENE,70,6.0,19.0,27,0.00,,,0.00,779.000000,,2013-06-30 23:22:00,
2013-06-30 17:33:00,90.0,51.0,-100.00,ENE,70,6.0,19.0,27,0.00,,,0.00,779.000000,,2013-06-30 23:33:00,
2013-06-30 17:44:00,90.0,51.0,-100.00,ENE,70,6.0,19.0,27,0.00,,,0.00,779.000000,,2013-06-30 23:44:00,
2013-06-30 17:53:00,90.0,51.0,-100.00,ENE,70,6.0,19.0,27,0.00,,,0.00,779.000000,,2013-06-30 23:53:00,
2013-06-30 18:01:00,90.0,51.0,-100.00,ENE,70,6.0,19.0,27,0.00,,,0.00,779.000000,,2013-07-01 00:01:00,
2013-06-30 18:22:00,92.0,51.0,-100.00,SSW,195,3.0,15.0,25,0.00,,,0.00,713.000000,,2013-07-01 00:22:00,
2013-06-30 18:33:00,92.0,51.0,-100.00,SSW,195,3.0,15.0,25,0.00,,,0.00,713.000000,,2013-07-01 00:33:00,
2013-06-30 18:42:00,92.0,51.0,-100.00,SSW,195,3.0,15.0,25,0.00,,,0.00,713.000000,,2013-07-01 00:42:00,
2013-06-30 18:52:00,92.0,51.0,-100.00,SSW,195,3.0,15.0,25,0.00,,,0.00,713.000000,,2013-07-01 00:52:00,
2013-06-30 19:01:00,92.0,51.0,-100.00,SSW,195,3.0,15.0,25,0.00,,,0.00,713.000000,,2013-07-01 01:01:00,
2013-06-30 19:22:00,89.0,51.0,-100.00,East,87,1.0,12.0,27,0.00,,,0.00,233.000000,,2013-07-01 01:22:00,
2013-06-30 19:34:00,89.0,51.0,-100.00,East,87,1.0,12.0,27,0.00,,,0.00,233.000000,,2013-07-01 01:34:00,
2013-06-30 19:43:00,89.0,51.0,-100.00,East,87,1.0,12.0,27,0.00,,,0.00,233.000000,,2013-07-01 01:43:00,
2013-06-30 19:52:00,89.0,51.0,-100.00,East,87,1.0,12.0,27,0.00,,,0.00,233.000000,,2013-07-01 01:52:00,
2013-06-30 20:02:00,89.0,51.0,-100.00,East,87,1.0,12.0,27,0.00,,,0.00,233.000000,,2013-07-01 02:02:00,
2013-06-30 20:22:00,84.0,49.0,-100.00,WNW,294,5.0,7.0,30,0.00,,,0.00,75.000000,,2013-07-01 02:22:00,
2013-06-30 20:33:00,84.0,49.0,-100.00,WNW,294,5.0,7.0,30,0.00,,,0.00,75.000000,,2013-07-01 02:33:00,
2013-06-30 20:44:00,84.0,49.0,-100.00,WNW,294,5.0,7.0,30,0.00,,,0.00,75.000000,,2013-07-01 02:44:00,
2013-06-30 20:54:00,84.0,49.0,-100.00,WNW,294,5.0,7.0,30,0.00,,,0.00,75.000000,,2013-07-01 02:54:00,
2013-06-30 21:01:00,84.0,49.0,-100.00,WNW,294,5.0,7.0,30,0.00,,,0.00,75.000000,,2013-07-01 03:01:00,
2013-06-30 21:23:00,82.0,50.0,-100.00,NW,322,7.0,12.0,33,0.00,,,0.00,106.000000,,2013-07-01 03:23:00,
2013-06-30 21:33:00,82.0,50.0,-100.00,NW,322,7.0,12.0,33,0.00,,,0.00,106.000000,,2013-07-01 03:33:00,
2013-06-30 21:43:00,82.0,50.0,-100.00,NW,322,7.0,12.0,33,0.00,,,0.00,106.000000,,2013-07-01 03:43:00,
2013-06-30 21:52:00,82.0,50.0,-100.00,NW,322,7.0,12.0,33,0.00,,,0.00,106.000000,,2013-07-01 03:52:00,
2013-06-30 22:01:00,82.0,50.0,-100.00,NW,322,7.0,12.0,33,0.00,,,0.00,106.000000,,2013-07-01 04:01:00,
2013-06-30 22:22:00,78.0,50.0,-100.00,NNW,335,6.0,10.0,38,0.00,,,0.00,5.000000,,2013-07-01 04:22:00,
2013-06-30 22:32:00,78.0,50.0,-100.00,NNW,335,6.0,10.0,38,0.00,,,0.00,5.000000,,2013-07-01 04:32:00,
2013-06-30 22:43:00,78.0,50.0,-100.00,NNW,335,6.0,10.0,38,0.00,,,0.00,5.000000,,2013-07-01 04:43:00,
2013-06-30 22:53:00,78.0,50.0,-100.00,NNW,335,6.0,10.0,38,0.00,,,0.00,5.000000,,2013-07-01 04:53:00,
2013-06-30 23:01:00,78.0,50.0,-100.00,NNW,335,6.0,10.0,38,0.00,,,0.00,5.000000,,2013-07-01 05:01:00,
2013-06-30 23:22:00,76.0,49.0,-100.00,NNW,337,4.0,12.0,39,0.00,,,0.00,0.000000,,2013-07-01 05:22:00,
2013-06-30 23:33:00,76.0,49.0,-100.00,NNW,337,4.0,12.0,39,0.00,,,0.00,0.000000,,2013-07-01 05:33:00,
2013-06-30 23:42:00,76.0,49.0,-100.00,NNW,337,4.0,12.0,39,0.00,,,0.00,0.000000,,2013-07-01 05:42:00,
2013-06-30 23:52:00,76.0,49.0,-100.00,NNW,337,4.0,12.0,39,0.00,,,0.00,0.000000,,2013-07-01 05:52:00,